Terminal Aerodrome Forecast
Issued by NWS

Home | Current Version | Previous Version | Text Only | Print | Product List | Glossary On
Versions: 1 2 3 4 5 6 7 8 9 10 11 12 13 14 15 16 17 18 19 20 21 22 23 24 25 26 27 28
000
FTUS44 KOUN 211740
TAFGAG
TAF
KGAG 211740Z 2118/2218 18014KT P6SM OVC008
     FM212000 17012KT P6SM OVC015
     FM220300 20011KT 4SM BR OVC008
     FM220800 25010KT P6SM BKN020
     FM221000 33014KT P6SM BKN150=

USA.gov is the U.S. government's official web portal to all federal, state and local government web resources and services.